Hope Hull, Alabama
Current Conditions -  °F | °C
As of 3:53 PM on Monday 26 Jan 2015 (Local Time) from KMGM Reporting Station
Clear Clear  
Wind Chill: 51°   Ceiling: Unl
Heat Index: 51°   Visibility: 10mi
Dew Point: 32°   Wind: 9mph
Humidity: 48%   Direction: 300°WNW
Pressure: 29.99"   Gusts: 18mph
Location:  32.27°N, 86.36°W
Report Text: KMGM 262153Z AUTO 30008G16KT 10SM CLR 11/00 A2999 RMK AO2 SLP155 T01060000
Loading
Personal Weather Stations






























Interactive Weather Map New forecast layout! Learn more

10-Day Weather Forecast

Advertisements
Track Severe Weather on mobile